Arcola, PA

10:56 PM EST on January 24, 2015 (GMT -0500)
Doylestown | Change Station
CLOSE
Current Station
Airport
Location: Doylestown,
Elevation: 394 ft
Nearby Weather Stations
Active Advisory: Special Statement

Elev 394 ft 40.33 °N, 75.12 °W | Updated 1 hour ago

Clear
Clear
34 °F
Feels Like 26 °F
N
12
Wind Variable Wind from WNW
Gusts 18 mph

Today
High -- | Low -- °F
--% Chance of Precip.
Yesterday
High -- | Low -- °F
Precip. -- in
7:17 AM 5:10 PM
Waxing Crescent, 28% visible
Pressure 29.52 in
Visibility 10.0 miles
Clouds Overcast 7000 ft
Windchill 26 °F
Dew Point 26 °F
Humidity 73%
Rainfall 0.00 in
Snow Depth Not available.
UV 0 out of 12
Pollen .10 out of 12
Air Quality Not available.
Flu Activity Not available.
METAR KDYL 250254Z AUTO 29010G16KT 10SM OVC070 01/M03 A2949 RMK AO2 SLP994 T00111033 53026

More Conditions Fewer Conditions

Pressure 29.52 in
Visibility 10.0 miles
Clouds Overcast 7000 ft
Windchill 26 °F
Dew Point 26 °F
Humidity 73%
Rainfall 0.00 in
Snow Depth Not available.
UV 0 out of 12
Pollen .10 out of 12
Air Quality Not available.
Flu Activity Not available.
METAR KDYL 250254Z AUTO 29010G16KT 10SM OVC070 01/M03 A2949 RMK AO2 SLP994 T00111033 53026

More Conditions Fewer Conditions

10-Day Weather Forecast

Almanac

Astronomy

Jan. 24, 2015 Rise Set
Actual Time
Civil Twilight
Nautical Twilight
Astronomical Twilight
Moon
Length of Visible Light
Length of Day
Tomorrow will be .
, % of the Moon is Illuminated

Today's Extremes

State Highs State Lows

Community

WunderPhotos

Upload Photos

1,789,825 photos uploaded!

WunderBlogs® & News

Nearby

Air Quality

  Air Quality AQ Index Pollutant
Not available.

Snow Depth

Station Depth Elevation

Earthquake Activity

City Distance Mag. Time & Date
Minimum magnitude displayed is 2.5.

Coastal Water Temperatures

Place Temperature

Nearby Weather Stations